Time;durP1;ratioP1;P1;durP2;ratioP2;P2;SDS_P1;SDS_P2;PMS_P1;PMS_P2;Temp;Humidity;BMP_temperature;BMP_pressure;BME280_temperature;BME280_humidity;BME280_pressure;Samples;Min_cycle;Max_cycle;Signal;HPM_P1;HPM_P2
2021/05/27 00:00:35;;;;;;;4.68;2.53;;;9.80;99.90;;;;;;4988256;28;20042;-73
2021/05/27 00:03:02;;;;;;;9.13;2.88;;;9.90;99.90;;;;;;4988541;28;20039;-74
2021/05/27 00:05:29;;;;;;;9.35;2.72;;;9.80;99.90;;;;;;5002937;28;20031;-73
2021/05/27 00:07:55;;;;;;;15.20;3.13;;;9.80;99.90;;;;;;4988353;28;20125;-74
2021/05/27 00:10:26;;;;;;;4.35;3.05;;;9.80;99.90;;;;;;4987986;28;20034;-74
2021/05/27 00:12:52;;;;;;;6.43;3.05;;;9.80;99.90;;;;;;4987928;28;20096;-73
2021/05/27 00:15:20;;;;;;;14.82;2.75;;;9.80;99.90;;;;;;4986689;28;20026;-74
2021/05/27 00:17:45;;;;;;;7.40;2.85;;;9.70;99.90;;;;;;4987602;28;20050;-75
2021/05/27 00:20:12;;;;;;;5.55;2.45;;;9.80;99.90;;;;;;4987944;28;20030;-74
2021/05/27 00:22:39;;;;;;;7.95;2.55;;;9.80;99.90;;;;;;4987929;28;20062;-74
2021/05/27 00:25:06;;;;;;;6.43;2.15;;;9.80;99.90;;;;;;4986746;28;20035;-71
2021/05/27 00:27:32;;;;;;;6.35;2.60;;;9.80;99.90;;;;;;4986100;28;20035;-71
2021/05/27 00:29:58;;;;;;;5.38;2.50;;;9.80;99.90;;;;;;4986466;28;20035;-69
2021/05/27 00:32:24;;;;;;;4.32;2.00;;;9.80;99.90;;;;;;4987263;28;20042;-71
2021/05/27 00:34:49;;;;;;;14.27;3.25;;;9.80;99.90;;;;;;4987688;28;20027;-72
2021/05/27 00:37:15;;;;;;;13.75;3.05;;;9.80;99.90;;;;;;4987721;28;20094;-73
2021/05/27 00:39:41;;;;;;;4.75;1.88;;;9.80;99.90;;;;;;4987083;28;20023;-71
2021/05/27 00:42:06;;;;;;;3.20;1.73;;;9.80;99.90;;;;;;4986828;28;20042;-70
2021/05/27 00:44:33;;;;;;;8.40;2.70;;;9.80;99.90;;;;;;4986728;28;20111;-73
2021/05/27 00:47:01;;;;;;;6.10;2.45;;;9.80;99.90;;;;;;5002290;28;20066;-74
2021/05/27 00:49:28;;;;;;;10.20;2.80;;;9.80;99.90;;;;;;4987709;28;20135;-73
2021/05/27 00:51:54;;;;;;;10.10;3.10;;;9.70;99.90;;;;;;4987336;28;20045;-73
2021/05/27 00:54:21;;;;;;;4.55;2.95;;;9.70;99.90;;;;;;4986893;28;20082;-72
2021/05/27 00:56:48;;;;;;;8.68;3.28;;;9.70;99.90;;;;;;4986867;28;20047;-75
2021/05/27 00:59:14;;;;;;;7.82;2.97;;;9.70;99.90;;;;;;5002295;28;20030;-71
2021/05/27 01:01:41;;;;;;;7.55;2.90;;;9.70;99.90;;;;;;4986803;28;20050;-73
2021/05/27 01:04:07;;;;;;;6.85;2.75;;;9.70;99.90;;;;;;4987095;28;20103;-75
2021/05/27 01:06:33;;;;;;;8.95;2.70;;;9.70;99.90;;;;;;4986949;28;20031;-72
2021/05/27 01:09:00;;;;;;;12.60;3.60;;;9.70;99.90;;;;;;5002102;28;20073;-70
2021/05/27 01:11:26;;;;;;;8.05;2.83;;;9.70;99.90;;;;;;4987062;28;20046;-73
2021/05/27 01:13:52;;;;;;;9.35;2.45;;;9.70;99.90;;;;;;4985993;28;20471;-69
2021/05/27 01:16:20;;;;;;;9.55;2.53;;;9.70;99.90;;;;;;4986851;28;20055;-70
2021/05/27 01:18:46;;;;;;;5.85;2.70;;;9.70;99.90;;;;;;4986916;28;20027;-78
2021/05/27 01:21:12;;;;;;;7.82;2.45;;;9.70;99.90;;;;;;4985909;28;20106;-70
2021/05/27 01:23:39;;;;;;;9.48;2.83;;;9.70;99.90;;;;;;4985936;28;20054;-72
2021/05/27 01:26:09;;;;;;;2.80;2.05;;;9.70;99.90;;;;;;4985220;28;20031;-73
2021/05/27 01:28:36;;;;;;;6.88;2.55;;;9.70;99.90;;;;;;4986251;28;20098;-73
2021/05/27 01:31:04;;;;;;;6.25;2.10;;;9.70;99.90;;;;;;4985744;28;20035;-71
2021/05/27 01:33:30;;;;;;;4.07;2.42;;;9.70;99.90;;;;;;4986560;28;20037;-68
2021/05/27 01:35:57;;;;;;;6.15;2.30;;;9.70;99.90;;;;;;4986823;28;20065;-71
2021/05/27 01:38:24;;;;;;;4.30;2.28;;;9.70;99.90;;;;;;4986744;28;20068;-71
2021/05/27 01:40:51;;;;;;;10.40;2.65;;;9.70;99.90;;;;;;4986003;28;20106;-72
2021/05/27 01:43:18;;;;;;;6.60;2.30;;;9.70;99.90;;;;;;4985162;28;20122;-73
2021/05/27 01:45:44;;;;;;;7.65;1.85;;;9.70;99.90;;;;;;4986157;28;20073;-72
2021/05/27 01:48:10;;;;;;;4.05;2.28;;;9.70;99.90;;;;;;4990696;28;20034;-70
2021/05/27 01:50:39;;;;;;;12.02;2.72;;;9.70;99.90;;;;;;5002520;28;20039;-70
2021/05/27 01:53:09;;;;;;;2.70;2.28;;;9.70;99.90;;;;;;5004784;28;20031;-74
2021/05/27 01:55:40;;;;;;;4.93;2.75;;;9.70;99.90;;;;;;5005015;28;20053;-70
2021/05/27 01:58:06;;;;;;;7.45;2.67;;;9.60;99.90;;;;;;5005871;28;20038;-71
2021/05/27 02:00:32;;;;;;;2.97;1.65;;;9.60;99.90;;;;;;5005606;28;20030;-71
2021/05/27 02:02:58;;;;;;;5.38;1.90;;;9.60;99.90;;;;;;5005388;28;20553;-72
2021/05/27 02:05:24;;;;;;;8.23;2.85;;;9.60;99.90;;;;;;5005224;28;20038;-74
2021/05/27 02:07:49;;;;;;;17.45;2.65;;;9.60;99.90;;;;;;5005661;28;20126;-73
2021/05/27 02:10:16;;;;;;;6.40;2.33;;;9.60;99.90;;;;;;5005129;28;20030;-70
2021/05/27 02:12:41;;;;;;;3.15;2.13;;;9.60;99.90;;;;;;5005400;28;20031;-72
2021/05/27 02:15:09;;;;;;;3.83;2.05;;;9.60;99.90;;;;;;5003866;28;20037;-71
2021/05/27 02:17:35;;;;;;;6.88;1.95;;;9.60;99.90;;;;;;5003681;28;20452;-72
2021/05/27 02:20:02;;;;;;;6.43;2.50;;;9.60;99.90;;;;;;5005046;28;20030;-70
2021/05/27 02:22:27;;;;;;;7.10;2.78;;;9.60;99.90;;;;;;5004929;28;20042;-72
2021/05/27 02:24:53;;;;;;;7.85;2.20;;;9.60;99.90;;;;;;5004968;28;20053;-75
2021/05/27 02:27:18;;;;;;;5.30;2.30;;;9.60;99.90;;;;;;5005146;28;20030;-71
2021/05/27 02:29:44;;;;;;;9.13;2.47;;;9.60;99.90;;;;;;5005011;28;20034;-70
2021/05/27 02:32:10;;;;;;;2.67;1.55;;;9.60;99.90;;;;;;5004659;28;20037;-74
2021/05/27 02:34:36;;;;;;;10.98;2.38;;;9.60;99.90;;;;;;5005276;28;20045;-75
2021/05/27 02:37:02;;;;;;;6.38;2.08;;;9.60;99.90;;;;;;5003760;28;20050;-71
2021/05/27 02:39:28;;;;;;;9.90;3.10;;;9.60;99.90;;;;;;5004826;28;20054;-68
2021/05/27 02:41:54;;;;;;;3.78;2.40;;;9.60;99.90;;;;;;5004566;28;20081;-73
2021/05/27 02:44:20;;;;;;;5.40;2.30;;;9.60;99.90;;;;;;5002940;28;20030;-71
2021/05/27 02:46:46;;;;;;;10.90;2.90;;;9.60;99.90;;;;;;5002948;28;20035;-75
2021/05/27 02:49:12;;;;;;;11.95;2.58;;;9.60;99.90;;;;;;5002931;28;20031;-73
2021/05/27 02:51:37;;;;;;;3.20;2.20;;;9.60;99.90;;;;;;5004037;28;20030;-74
2021/05/27 02:54:04;;;;;;;7.10;2.13;;;9.60;99.90;;;;;;5007610;28;20550;-76
2021/05/27 02:56:30;;;;;;;8.07;2.28;;;9.60;99.90;;;;;;5009112;28;20073;-72
2021/05/27 02:58:55;;;;;;;14.02;2.05;;;9.50;99.90;;;;;;5007748;28;20038;-71
2021/05/27 03:01:21;;;;;;;7.78;2.22;;;9.60;99.90;;;;;;5008910;28;20084;-75
2021/05/27 03:03:47;;;;;;;5.13;2.53;;;9.50;99.90;;;;;;5008569;28;20109;-70
2021/05/27 03:06:12;;;;;;;8.23;2.78;;;9.60;99.90;;;;;;5008444;28;20479;-72
2021/05/27 03:08:41;;;;;;;4.38;1.98;;;9.60;99.90;;;;;;5008658;28;20051;-71
2021/05/27 03:11:08;;;;;;;7.70;3.00;;;9.50;99.90;;;;;;5008725;28;20022;-71
2021/05/27 03:13:33;;;;;;;6.70;1.58;;;9.60;99.90;;;;;;5008194;28;20052;-71
2021/05/27 03:16:00;;;;;;;4.95;2.38;;;9.60;99.90;;;;;;5009107;28;20082;-73
2021/05/27 03:18:27;;;;;;;4.75;2.05;;;9.60;99.90;;;;;;5008524;28;20057;-75
2021/05/27 03:20:53;;;;;;;4.30;2.67;;;9.60;99.90;;;;;;5008252;28;20027;-75
2021/05/27 03:23:18;;;;;;;6.35;2.60;;;9.60;99.90;;;;;;5007149;28;20069;-72
2021/05/27 03:25:44;;;;;;;4.25;2.03;;;9.60;99.90;;;;;;5008156;28;20022;-69
2021/05/27 03:28:09;;;;;;;5.63;1.95;;;9.60;99.90;;;;;;5006766;28;20041;-69
2021/05/27 03:30:35;;;;;;;2.58;1.77;;;9.60;99.90;;;;;;5008497;28;20533;-71
2021/05/27 03:33:01;;;;;;;5.93;2.47;;;9.60;99.90;;;;;;5008101;28;20050;-72
2021/05/27 03:35:27;;;;;;;4.13;2.15;;;9.50;99.90;;;;;;5008185;28;20560;-73
2021/05/27 03:37:53;;;;;;;4.43;2.33;;;9.50;99.90;;;;;;5008268;28;20027;-72
2021/05/27 03:40:18;;;;;;;4.22;2.35;;;9.50;99.90;;;;;;5008112;28;20078;-70
2021/05/27 03:42:50;;;;;;;2.70;1.70;;;9.50;99.90;;;;;;5007824;28;20042;-73
2021/05/27 03:45:24;;;;;;;4.30;1.77;;;9.50;99.90;;;;;;5008118;28;20041;-70
2021/05/27 03:47:51;;;;;;;4.50;1.90;;;9.50;99.90;;;;;;5007964;28;20022;-68
2021/05/27 03:50:20;;;;;;;5.70;1.52;;;9.50;99.90;;;;;;5008080;28;20105;-73
2021/05/27 03:52:46;;;;;;;7.75;3.03;;;9.50;99.90;;;;;;5006338;28;20040;-72
2021/05/27 03:55:14;;;;;;;6.32;1.98;;;9.50;99.90;;;;;;5007652;28;20053;-69
2021/05/27 03:57:40;;;;;;;8.93;2.83;;;9.50;99.90;;;;;;5007462;28;20038;-69
2021/05/27 04:02:55;;;;;;;18.30;2.28;;;9.50;99.90;;;;;;5007445;28;20092;-72
2021/05/27 04:08:06;;;;;;;1.77;1.48;;;9.50;99.90;;;;;;5008166;28;20045;-71
2021/05/27 04:10:32;;;;;;;3.17;1.60;;;9.50;99.90;;;;;;5006165;28;20065;-73
2021/05/27 04:12:58;;;;;;;4.68;2.08;;;9.50;99.90;;;;;;5006586;28;20019;-69
2021/05/27 04:15:29;;;;;;;5.70;1.80;;;9.50;99.90;;;;;;5007708;28;20030;-72
2021/05/27 04:18:10;;;;;;;1.92;1.50;;;9.60;99.90;;;;;;5005410;28;20120;-72
2021/05/27 04:20:46;;;;;;;11.05;2.65;;;9.60;99.90;;;;;;5007681;28;20030;-69
2021/05/27 04:23:13;;;;;;;3.88;2.03;;;9.60;99.90;;;;;;5007018;28;20034;-73
2021/05/27 04:25:41;;;;;;;4.45;2.05;;;9.60;99.90;;;;;;5006749;28;20033;-74
2021/05/27 04:28:07;;;;;;;5.50;2.33;;;9.60;99.90;;;;;;5007174;28;20028;-71
2021/05/27 04:31:17;;;;;;;8.73;2.53;;;9.70;99.90;;;;;;5007366;28;20038;-71
2021/05/27 04:33:23;;;;;;;11.63;2.08;;;9.70;99.90;;;;;;5000939;28;20046;-71
2021/05/27 04:35:49;;;;;;;3.58;1.60;;;9.70;99.90;;;;;;5007031;28;20486;-74
2021/05/27 04:38:17;;;;;;;2.58;1.38;;;9.70;99.90;;;;;;5005611;28;20045;-73
2021/05/27 04:40:45;;;;;;;10.00;2.58;;;9.70;99.90;;;;;;5006712;28;20053;-77
2021/05/27 04:43:11;;;;;;;11.60;2.20;;;9.70;99.90;;;;;;5006939;28;20048;-75
2021/05/27 04:45:38;;;;;;;1.80;1.30;;;9.70;99.90;;;;;;5005724;28;20049;-76
2021/05/27 04:48:09;;;;;;;6.00;2.10;;;9.70;99.90;;;;;;5005533;28;20032;-74
2021/05/27 04:50:35;;;;;;;3.10;1.73;;;9.80;99.90;;;;;;5007008;28;20030;-77
2021/05/27 04:53:01;;;;;;;3.30;1.30;;;9.80;99.90;;;;;;5006466;28;20045;-73
2021/05/27 04:55:26;;;;;;;9.13;2.00;;;9.70;99.90;;;;;;5006302;28;20066;-70
2021/05/27 04:57:52;;;;;;;7.03;1.67;;;9.80;99.90;;;;;;5006756;28;20038;-70
2021/05/27 05:00:23;;;;;;;5.75;1.75;;;9.80;99.90;;;;;;4998757;28;20034;-75
2021/05/27 05:02:49;;;;;;;3.72;1.48;;;9.80;99.90;;;;;;5000144;28;20046;-73
2021/05/27 05:05:15;;;;;;;1.70;1.23;;;9.80;99.90;;;;;;5006849;28;20027;-69
2021/05/27 05:07:42;;;;;;;9.50;2.03;;;9.80;99.90;;;;;;5006073;28;20030;-71
2021/05/27 05:10:13;;;;;;;15.75;1.95;;;9.80;99.90;;;;;;5005769;28;20037;-70
2021/05/27 05:12:46;;;;;;;2.63;1.65;;;9.80;99.90;;;;;;5005220;28;20479;-76
2021/05/27 05:15:20;;;;;;;11.63;1.55;;;9.80;99.90;;;;;;5005477;28;20050;-75
2021/05/27 05:17:54;;;;;;;3.67;1.88;;;9.80;99.90;;;;;;5005014;28;20031;-74
2021/05/27 05:20:22;;;;;;;7.32;1.52;;;9.80;99.90;;;;;;5005257;28;20061;-73
2021/05/27 05:22:48;;;;;;;4.30;1.95;;;9.80;99.90;;;;;;5005654;28;20109;-69
2021/05/27 05:25:15;;;;;;;8.95;1.52;;;9.90;99.90;;;;;;5004557;28;20030;-72
2021/05/27 05:27:41;;;;;;;6.32;1.98;;;9.90;99.90;;;;;;5004840;28;20026;-70
2021/05/27 05:30:09;;;;;;;5.43;1.80;;;9.90;99.90;;;;;;5005228;28;20022;-75
2021/05/27 05:32:35;;;;;;;2.28;1.63;;;9.90;99.90;;;;;;5004887;28;20109;-71
2021/05/27 05:35:02;;;;;;;7.88;1.90;;;9.90;99.90;;;;;;5005927;28;20034;-73
2021/05/27 05:37:28;;;;;;;2.05;1.30;;;9.90;99.90;;;;;;5005517;28;20045;-75
2021/05/27 05:39:54;;;;;;;4.50;1.90;;;9.90;99.90;;;;;;5004652;28;20027;-74
2021/05/27 05:42:20;;;;;;;10.63;2.67;;;9.90;99.90;;;;;;4990484;28;20074;-72
2021/05/27 05:44:52;;;;;;;1.65;1.40;;;10.00;99.90;;;;;;5005296;28;20049;-76
2021/05/27 05:47:18;;;;;;;8.07;1.55;;;10.00;99.90;;;;;;4994011;28;20109;-75
2021/05/27 05:49:43;;;;;;;2.53;1.10;;;10.00;99.90;;;;;;4986193;28;20027;-73
2021/05/27 05:52:09;;;;;;;3.05;1.45;;;10.00;99.90;;;;;;4999896;28;20031;-71
2021/05/27 05:54:35;;;;;;;1.75;1.10;;;10.10;99.90;;;;;;5005848;28;20049;-74
2021/05/27 05:57:01;;;;;;;3.63;2.10;;;10.10;99.90;;;;;;5004360;28;20061;-70
2021/05/27 05:59:26;;;;;;;13.63;1.13;;;10.10;99.90;;;;;;5005207;28;20545;-73
2021/05/27 06:02:03;;;;;;;11.65;2.45;;;10.10;99.90;;;;;;5004077;28;20042;-74
2021/05/27 06:04:28;;;;;;;1.85;1.30;;;10.10;99.90;;;;;;5005643;28;20023;-73
2021/05/27 06:06:54;;;;;;;5.55;1.42;;;10.10;99.90;;;;;;5004394;28;20032;-74
2021/05/27 06:09:20;;;;;;;9.15;1.52;;;10.10;99.90;;;;;;5004225;28;20034;-72
2021/05/27 06:11:45;;;;;;;2.70;1.13;;;10.10;99.90;;;;;;5003661;28;20154;-72
2021/05/27 06:14:11;;;;;;;2.60;1.25;;;10.10;99.90;;;;;;5005225;28;20042;-72
2021/05/27 06:16:37;;;;;;;6.22;1.35;;;10.10;99.90;;;;;;5005545;28;20031;-77
2021/05/27 06:19:03;;;;;;;2.63;1.02;;;10.10;99.90;;;;;;5005322;28;20026;-71
2021/05/27 06:21:28;;;;;;;1.55;0.95;;;10.10;99.90;;;;;;5005644;28;20101;-75
2021/05/27 06:23:54;;;;;;;8.68;1.30;;;10.20;99.90;;;;;;5005353;28;20058;-72
2021/05/27 06:26:20;;;;;;;2.58;0.70;;;10.10;99.90;;;;;;5000849;28;20038;-71
2021/05/27 06:28:45;;;;;;;1.23;0.80;;;10.10;99.90;;;;;;4998392;28;20026;-71
2021/05/27 06:31:11;;;;;;;3.92;0.88;;;10.10;99.90;;;;;;5003519;28;20026;-72
2021/05/27 06:33:37;;;;;;;1.92;0.80;;;10.10;99.90;;;;;;5004673;28;20050;-73
2021/05/27 06:36:05;;;;;;;3.28;0.82;;;10.10;99.90;;;;;;5005293;28;20050;-73
2021/05/27 06:38:32;;;;;;;9.18;0.90;;;10.10;99.90;;;;;;5005492;28;20447;-72
2021/05/27 06:40:57;;;;;;;14.18;0.88;;;10.10;99.90;;;;;;5005188;28;20035;-72
2021/05/27 06:43:23;;;;;;;9.73;1.25;;;10.20;99.90;;;;;;5005153;28;20042;-72
2021/05/27 06:45:49;;;;;;;1.48;0.82;;;10.20;99.90;;;;;;5004591;28;20030;-73
2021/05/27 06:48:14;;;;;;;2.13;0.85;;;10.20;99.90;;;;;;4989218;28;20034;-73
2021/05/27 06:50:40;;;;;;;3.00;1.02;;;10.30;99.90;;;;;;5000937;28;20490;-74
2021/05/27 06:53:08;;;;;;;1.60;1.13;;;10.30;99.90;;;;;;5002752;28;20026;-75
2021/05/27 06:55:36;;;;;;;7.88;0.85;;;10.30;99.90;;;;;;5004377;28;20073;-77
2021/05/27 06:58:02;;;;;;;1.23;0.75;;;10.40;99.90;;;;;;5003974;28;20493;-70
2021/05/27 07:00:29;;;;;;;3.67;1.10;;;10.50;99.90;;;;;;5004571;28;20063;-70
2021/05/27 07:02:55;;;;;;;3.60;1.45;;;10.50;99.90;;;;;;5001451;28;20038;-75
2021/05/27 07:05:21;;;;;;;2.00;0.73;;;10.60;99.90;;;;;;4990403;28;20469;-76
2021/05/27 07:07:47;;;;;;;4.88;1.10;;;10.70;99.90;;;;;;5003794;28;20038;-73
2021/05/27 07:10:17;;;;;;;2.85;1.13;;;10.80;99.90;;;;;;5003216;28;20022;-73
2021/05/27 07:12:59;;;;;;;9.75;1.20;;;10.80;99.90;;;;;;5004266;28;20027;-73
2021/05/27 07:15:26;;;;;;;3.63;1.35;;;10.80;99.90;;;;;;5004194;28;20081;-75
2021/05/27 07:17:53;;;;;;;1.90;1.08;;;10.80;99.90;;;;;;5003439;28;20026;-74
2021/05/27 07:20:21;;;;;;;3.22;1.42;;;10.90;99.90;;;;;;5004403;28;20026;-71
2021/05/27 07:22:48;;;;;;;5.82;1.48;;;10.90;99.90;;;;;;5003002;28;20502;-75
2021/05/27 07:25:15;;;;;;;3.65;1.40;;;11.00;99.90;;;;;;5004799;28;20463;-73
2021/05/27 07:27:42;;;;;;;3.75;1.38;;;11.00;99.90;;;;;;5004837;28;20077;-75
2021/05/27 07:30:09;;;;;;;2.10;1.10;;;11.10;99.90;;;;;;5004289;28;20026;-74
2021/05/27 07:32:38;;;;;;;6.38;1.48;;;11.00;99.90;;;;;;5003374;28;20034;-76
2021/05/27 07:35:08;;;;;;;4.22;1.45;;;11.00;99.90;;;;;;5005041;28;20026;-73
2021/05/27 07:37:33;;;;;;;2.75;1.10;;;11.00;99.90;;;;;;5004395;28;20034;-74
2021/05/27 07:39:59;;;;;;;6.72;1.52;;;11.00;99.90;;;;;;5007969;28;20049;-72
2021/05/27 07:42:25;;;;;;;2.28;1.23;;;10.90;99.90;;;;;;5008144;28;20053;-75
2021/05/27 07:44:51;;;;;;;3.28;1.92;;;10.90;99.90;;;;;;5006598;28;20165;-72
2021/05/27 07:47:16;;;;;;;6.22;1.67;;;10.90;99.90;;;;;;5008544;28;20023;-75
2021/05/27 07:49:42;;;;;;;4.47;1.88;;;10.80;99.90;;;;;;5006199;28;20153;-73
2021/05/27 07:52:08;;;;;;;3.67;1.48;;;10.80;99.90;;;;;;5006828;28;20027;-72
2021/05/27 07:54:37;;;;;;;5.88;1.10;;;10.80;99.90;;;;;;5007914;28;20026;-73
2021/05/27 07:57:04;;;;;;;4.63;1.35;;;10.80;99.90;;;;;;5007865;28;20061;-73
2021/05/27 07:59:30;;;;;;;1.50;0.80;;;10.80;99.90;;;;;;5007007;28;20041;-72
2021/05/27 08:01:55;;;;;;;3.08;1.15;;;10.80;99.90;;;;;;5008221;28;20065;-74
2021/05/27 08:04:21;;;;;;;10.90;1.85;;;10.90;99.90;;;;;;5005441;28;20069;-72
2021/05/27 08:06:46;;;;;;;2.45;1.33;;;11.00;99.90;;;;;;4987144;28;20034;-73
2021/05/27 08:09:12;;;;;;;2.70;0.93;;;11.20;99.90;;;;;;4989184;28;20023;-76
2021/05/27 08:11:42;;;;;;;2.22;1.20;;;11.30;99.90;;;;;;4988558;28;20038;-74
2021/05/27 08:14:11;;;;;;;9.52;1.02;;;11.40;99.90;;;;;;4988439;28;20042;-76
2021/05/27 08:16:37;;;;;;;7.35;1.83;;;11.40;99.90;;;;;;4988302;28;20031;-74
2021/05/27 08:19:03;;;;;;;1.25;0.85;;;11.40;99.90;;;;;;4986762;28;20023;-72
2021/05/27 08:21:30;;;;;;;4.43;0.90;;;11.50;99.90;;;;;;4990226;28;20529;-71
2021/05/27 08:23:56;;;;;;;6.18;1.15;;;11.40;99.90;;;;;;5001209;28;20045;-73
2021/05/27 08:26:23;;;;;;;4.70;1.38;;;11.40;99.90;;;;;;5007169;28;20049;-75
2021/05/27 08:28:48;;;;;;;2.05;1.15;;;11.50;99.90;;;;;;5007012;28;20045;-71
2021/05/27 08:31:15;;;;;;;1.48;1.05;;;11.50;99.90;;;;;;5007353;28;20026;-73
2021/05/27 08:33:41;;;;;;;4.70;1.67;;;11.40;99.90;;;;;;5007138;28;20050;-75
2021/05/27 08:36:07;;;;;;;1.38;0.88;;;11.40;99.90;;;;;;5007800;28;20524;-73
2021/05/27 08:38:34;;;;;;;1.85;1.27;;;11.40;99.90;;;;;;5007270;28;20394;-74
2021/05/27 08:41:00;;;;;;;10.05;1.60;;;11.30;99.90;;;;;;5007383;28;20045;-73
2021/05/27 08:43:28;;;;;;;3.03;1.17;;;11.20;99.90;;;;;;5006000;28;20057;-74
2021/05/27 08:45:54;;;;;;;1.63;1.08;;;11.20;99.90;;;;;;5007084;28;20066;-73
2021/05/27 08:48:19;;;;;;;3.45;1.27;;;11.20;99.90;;;;;;5007013;28;20081;-71
2021/05/27 08:50:47;;;;;;;2.55;1.25;;;11.20;99.90;;;;;;5004570;28;20077;-74
2021/05/27 08:53:18;;;;;;;1.80;0.98;;;11.10;99.90;;;;;;5005549;28;20041;-74
2021/05/27 08:55:45;;;;;;;4.43;1.52;;;11.20;99.90;;;;;;5006655;28;20073;-74
2021/05/27 08:58:11;;;;;;;6.00;2.20;;;11.20;99.90;;;;;;5006989;28;20112;-72
2021/05/27 09:00:37;;;;;;;3.00;1.23;;;11.20;99.90;;;;;;5006070;28;20474;-72
2021/05/27 09:03:15;;;;;;;4.40;1.65;;;11.20;99.90;;;;;;5005533;28;20035;-72
2021/05/27 09:05:42;;;;;;;9.45;1.50;;;11.10;99.90;;;;;;5003067;28;20113;-71
2021/05/27 09:08:09;;;;;;;3.53;1.15;;;11.10;99.90;;;;;;5005257;28;20066;-72
2021/05/27 09:10:41;;;;;;;2.97;1.25;;;11.10;99.90;;;;;;5004723;28;20064;-75
2021/05/27 09:13:19;;;;;;;8.48;1.73;;;11.00;99.90;;;;;;5005131;28;20034;-76
2021/05/27 09:15:49;;;;;;;3.50;2.05;;;11.00;99.90;;;;;;4993303;28;20031;-70
2021/05/27 09:18:36;;;;;;;3.90;1.55;;;10.90;99.90;;;;;;4985455;28;20023;-70
2021/05/27 09:21:05;;;;;;;3.40;2.10;;;10.90;99.90;;;;;;4990342;28;20026;-74
2021/05/27 09:23:31;;;;;;;6.57;2.58;;;10.90;99.90;;;;;;4996003;28;20067;-74
2021/05/27 09:26:12;;;;;;;4.60;2.50;;;10.90;99.90;;;;;;5000806;28;20041;-78
2021/05/27 09:28:38;;;;;;;5.90;2.47;;;10.90;99.90;;;;;;5004170;28;20022;-73
2021/05/27 09:31:15;;;;;;;14.23;2.63;;;10.90;99.90;;;;;;5005039;28;20038;-72
2021/05/27 09:33:43;;;;;;;6.15;2.42;;;10.90;99.90;;;;;;5000903;28;20040;-77
2021/05/27 09:36:10;;;;;;;7.68;2.53;;;10.90;99.90;;;;;;5000230;28;20553;-74
2021/05/27 09:38:41;;;;;;;8.55;2.60;;;10.80;99.90;;;;;;4984592;28;20037;-73
2021/05/27 09:41:20;;;;;;;6.47;2.30;;;10.80;99.90;;;;;;4985025;28;20050;-74
2021/05/27 09:43:49;;;;;;;11.65;2.40;;;10.80;99.90;;;;;;4983971;28;20106;-75
2021/05/27 09:46:16;;;;;;;3.08;2.38;;;11.00;99.90;;;;;;4985141;28;20022;-74
2021/05/27 09:48:43;;;;;;;5.15;2.63;;;11.00;99.90;;;;;;4984677;28;20054;-75
2021/05/27 09:51:10;;;;;;;6.35;1.67;;;11.20;99.90;;;;;;4985136;28;20031;-75
2021/05/27 09:53:36;;;;;;;2.00;1.40;;;11.30;99.90;;;;;;4984874;28;20062;-73
2021/05/27 09:56:04;;;;;;;3.38;1.48;;;11.40;99.90;;;;;;4984905;28;20058;-70
2021/05/27 09:58:31;;;;;;;3.78;1.58;;;11.50;99.90;;;;;;4984898;28;20026;-75
2021/05/27 10:00:57;;;;;;;6.68;1.90;;;11.70;99.90;;;;;;4982732;28;20035;-72
2021/05/27 10:03:31;;;;;;;3.67;1.02;;;11.80;99.90;;;;;;4985022;28;20039;-74
2021/05/27 10:06:03;;;;;;;8.13;1.20;;;11.80;99.90;;;;;;4984886;28;20030;-74
2021/05/27 10:08:31;;;;;;;2.20;1.20;;;11.80;99.90;;;;;;4984342;28;20063;-75
2021/05/27 10:10:57;;;;;;;2.90;1.25;;;11.80;99.90;;;;;;4984477;28;20031;-69
2021/05/27 10:13:26;;;;;;;1.50;1.20;;;11.80;99.90;;;;;;4983405;28;20574;-76
2021/05/27 10:15:52;;;;;;;4.90;1.35;;;11.80;99.90;;;;;;4983210;28;20082;-77
2021/05/27 10:18:21;;;;;;;4.03;1.80;;;11.70;99.90;;;;;;4984623;28;20035;-76
2021/05/27 10:20:47;;;;;;;3.13;1.00;;;11.50;99.90;;;;;;4983167;28;20085;-77
2021/05/27 10:23:14;;;;;;;0.90;0.70;;;11.60;99.90;;;;;;4983029;28;20034;-73
2021/05/27 10:25:42;;;;;;;4.40;1.17;;;11.70;99.90;;;;;;4983974;28;20031;-75
2021/05/27 10:28:12;;;;;;;2.00;1.20;;;11.80;99.90;;;;;;5002409;28;20027;-74
2021/05/27 10:30:40;;;;;;;1.08;0.80;;;11.90;99.90;;;;;;5003776;28;20034;-79
2021/05/27 10:33:14;;;;;;;6.38;1.25;;;11.90;99.90;;;;;;5002717;28;20030;-76
2021/05/27 10:36:01;;;;;;;1.60;0.77;;;11.90;99.90;;;;;;5004063;28;20023;-74
2021/05/27 10:38:40;;;;;;;11.88;1.75;;;12.00;99.90;;;;;;5002498;28;20057;-75
2021/05/27 10:41:10;;;;;;;1.13;0.75;;;12.10;99.90;;;;;;5002600;28;20046;-79
2021/05/27 10:43:57;;;;;;;3.42;1.17;;;12.10;99.90;;;;;;5003626;28;20045;-77
2021/05/27 10:46:22;;;;;;;1.15;0.70;;;12.10;99.90;;;;;;5002022;28;20050;-71
2021/05/27 10:48:50;;;;;;;6.30;1.17;;;12.10;99.90;;;;;;4985630;28;20041;-76
2021/05/27 10:51:43;;;;;;;0.55;0.52;;;12.00;99.90;;;;;;5003765;28;20093;-71
2021/05/27 10:54:14;;;;;;;4.82;1.50;;;12.00;99.90;;;;;;5003279;28;20026;-76
2021/05/27 10:56:47;;;;;;;0.93;0.57;;;12.00;99.90;;;;;;5004759;28;20055;-72
2021/05/27 10:59:17;;;;;;;10.93;1.38;;;11.90;99.90;;;;;;5003579;28;20026;-79
2021/05/27 11:01:43;;;;;;;2.30;1.15;;;12.00;99.90;;;;;;5002393;28;20030;-74
2021/05/27 11:04:30;;;;;;;3.40;1.73;;;12.00;99.90;;;;;;5003329;28;20029;-72
2021/05/27 11:07:16;;;;;;;1.83;0.98;;;12.00;99.90;;;;;;5004893;28;20042;-77
2021/05/27 11:09:46;;;;;;;3.05;1.40;;;12.00;99.90;;;;;;5003560;28;20473;-75
2021/05/27 11:12:18;;;;;;;1.23;0.80;;;12.10;99.90;;;;;;5004663;28;20019;-76
2021/05/27 11:15:01;;;;;;;1.58;1.23;;;12.10;99.90;;;;;;5006772;28;20022;-74
2021/05/27 11:17:27;;;;;;;2.47;1.10;;;12.00;99.90;;;;;;5008930;28;20613;-76
2021/05/27 11:22:31;;;;;;;2.72;0.73;;;11.90;99.90;;;;;;5008810;28;20093;-73
2021/05/27 11:28:03;;;;;;;1.38;0.80;;;11.80;99.90;;;;;;5008427;28;20034;-78
2021/05/27 11:30:38;;;;;;;3.78;0.60;;;11.80;99.90;;;;;;5008381;28;20084;-73
2021/05/27 11:33:11;;;;;;;5.05;1.20;;;11.70;99.90;;;;;;5007064;28;20050;-75
2021/05/27 11:35:40;;;;;;;8.00;1.10;;;11.70;99.90;;;;;;5008562;28;20031;-75
2021/05/27 11:38:10;;;;;;;1.38;1.05;;;11.70;99.90;;;;;;5008032;28;20058;-77
2021/05/27 11:40:39;;;;;;;1.95;0.82;;;11.70;99.90;;;;;;5005992;28;20121;-75
2021/05/27 11:43:05;;;;;;;3.53;1.00;;;11.60;99.90;;;;;;4994875;28;20394;-78
2021/05/27 11:45:48;;;;;;;6.50;1.55;;;11.60;99.90;;;;;;4999715;28;20043;-72
2021/05/27 11:48:44;;;;;;;2.28;0.95;;;11.60;99.90;;;;;;4988232;28;20084;-73
2021/05/27 11:51:19;;;;;;;2.00;1.05;;;11.50;99.90;;;;;;4987259;28;20031;-72
2021/05/27 11:53:58;;;;;;;1.30;1.00;;;11.50;99.90;;;;;;4988303;28;20125;-75
2021/05/27 11:56:46;;;;;;;3.25;1.50;;;11.50;99.90;;;;;;4988187;28;20073;-76
2021/05/27 11:59:17;;;;;;;4.10;0.98;;;11.50;99.90;;;;;;4988380;28;20026;-73
2021/05/27 12:02:03;;;;;;;1.42;0.98;;;11.50;99.90;;;;;;4988529;28;20042;-75
2021/05/27 12:04:31;;;;;;;7.57;1.50;;;11.40;99.90;;;;;;5008105;28;20654;-72
2021/05/27 12:07:06;;;;;;;10.02;1.70;;;11.40;99.90;;;;;;5007226;28;20033;-75
2021/05/27 12:09:36;;;;;;;7.43;1.27;;;11.50;99.90;;;;;;5006496;28;20036;-71
2021/05/27 12:12:13;;;;;;;6.90;1.73;;;11.50;99.90;;;;;;5006759;28;20077;-73
2021/05/27 12:14:42;;;;;;;1.27;1.00;;;11.50;99.90;;;;;;5007424;28;20155;-75
2021/05/27 12:17:22;;;;;;;3.10;1.17;;;11.60;99.90;;;;;;5006725;28;20030;-73
2021/05/27 12:19:53;;;;;;;4.97;1.40;;;11.60;99.90;;;;;;5006655;28;20030;-74
2021/05/27 12:22:20;;;;;;;6.10;1.63;;;11.60;99.90;;;;;;5006357;28;20026;-76
2021/05/27 12:24:47;;;;;;;2.40;0.90;;;11.70;99.90;;;;;;5006314;28;20105;-72
2021/05/27 12:27:13;;;;;;;2.88;1.13;;;11.80;99.90;;;;;;5007379;28;20033;-75
2021/05/27 12:29:40;;;;;;;3.53;1.40;;;11.90;99.90;;;;;;5007347;28;20038;-75
2021/05/27 12:32:08;;;;;;;2.25;1.10;;;12.20;99.90;;;;;;5007914;28;20511;-73
2021/05/27 12:34:38;;;;;;;3.00;0.77;;;12.50;99.90;;;;;;5007104;28;20022;-76
2021/05/27 12:37:06;;;;;;;2.35;0.88;;;12.80;99.90;;;;;;5006964;28;20030;-73
2021/05/27 12:39:37;;;;;;;4.53;1.00;;;12.90;99.90;;;;;;5005929;28;20401;-74
2021/05/27 12:42:12;;;;;;;3.15;0.98;;;13.00;99.90;;;;;;5005475;28;20042;-71
2021/05/27 12:44:42;;;;;;;0.93;0.70;;;13.10;99.90;;;;;;5007145;28;20090;-72
2021/05/27 12:47:16;;;;;;;1.92;1.10;;;13.30;99.90;;;;;;4989901;28;20035;-74
2021/05/27 12:49:45;;;;;;;4.63;1.20;;;13.30;99.90;;;;;;4986257;28;20058;-71
2021/05/27 12:52:11;;;;;;;0.75;0.60;;;13.30;99.90;;;;;;5006731;28;20113;-71
2021/05/27 12:54:37;;;;;;;2.22;0.88;;;13.20;99.90;;;;;;5002663;28;20027;-71
2021/05/27 12:57:09;;;;;;;2.78;0.77;;;13.30;99.90;;;;;;4986597;28;20517;-74
2021/05/27 12:59:40;;;;;;;2.47;1.25;;;13.20;99.90;;;;;;4987669;28;20118;-72
2021/05/27 13:02:10;;;;;;;2.42;1.20;;;13.20;99.90;;;;;;4987145;28;20031;-69
2021/05/27 13:04:37;;;;;;;2.00;0.85;;;13.30;99.90;;;;;;4986942;28;20100;-70
2021/05/27 13:07:14;;;;;;;1.70;1.05;;;13.40;99.90;;;;;;4986224;28;20039;-72